createdAt,value
2023-10-08T00:00:22.468Z,100548.25
2023-10-08T00:00:54.535Z,100544.91
2023-10-08T00:01:26.930Z,100537.44
2023-10-08T00:01:58.905Z,100537.56
2023-10-08T00:02:31.214Z,100540.03
2023-10-08T00:03:06.379Z,100536.53
2023-10-08T00:03:38.676Z,100537.56
2023-10-08T00:04:11.188Z,100542.06
2023-10-08T00:04:43.292Z,100540.94
2023-10-08T00:05:15.549Z,100535.56
2023-10-08T00:05:48.067Z,100529.59
2023-10-08T00:06:21.997Z,100537.22
2023-10-08T00:06:54.552Z,100537.91
2023-10-08T00:07:26.526Z,100538.41
2023-10-08T00:07:58.756Z,100542.72
2023-10-08T00:08:30.788Z,100544.38
2023-10-08T00:09:02.925Z,100532.25
2023-10-08T00:09:35.283Z,100531.41
2023-10-08T00:10:08.522Z,100534.06
2023-10-08T00:10:47.154Z,100525.41
2023-10-08T00:11:19.468Z,100530.09
2023-10-08T00:11:51.603Z,100527.78
2023-10-08T00:12:26.829Z,100534.97
2023-10-08T00:12:59.607Z,100528.94
2023-10-08T00:13:31.711Z,100521.16
2023-10-08T00:14:05.639Z,100520.13
2023-10-08T00:14:37.698Z,100517.66
2023-10-08T00:15:09.903Z,100525.28
2023-10-08T00:15:42.352Z,100522.63
2023-10-08T00:16:15.288Z,100522.63
2023-10-08T00:16:50.633Z,100518.13
2023-10-08T00:17:22.753Z,100521.28
2023-10-08T00:17:54.871Z,100517.94
2023-10-08T00:18:27.038Z,100519.28
2023-10-08T00:18:59.045Z,100517.94
2023-10-08T00:19:31.105Z,100517.47
2023-10-08T00:20:03.322Z,100515.00
2023-10-08T00:20:36.674Z,100515.31
2023-10-08T00:21:08.705Z,100507.31
2023-10-08T00:21:40.734Z,100517.19
2023-10-08T00:22:12.827Z,100521.84
2023-10-08T00:22:44.855Z,100515.19
2023-10-08T00:23:16.893Z,100527.03
2023-10-08T00:23:49.021Z,100526.56
2023-10-08T00:24:21.015Z,100518.09
2023-10-08T00:24:53.089Z,100513.78
2023-10-08T00:25:25.058Z,100519.75
2023-10-08T00:26:00.299Z,100531.41
2023-10-08T00:26:32.764Z,100529.06
2023-10-08T00:27:04.839Z,100530.13
2023-10-08T00:27:36.931Z,100528.81
2023-10-08T00:28:09.612Z,100522.16
2023-10-08T00:28:41.640Z,100525.97
2023-10-08T00:29:15.484Z,100527.16
2023-10-08T00:29:47.590Z,100530.66
2023-10-08T00:30:19.677Z,100523.53
2023-10-08T00:30:51.823Z,100526.50
2023-10-08T00:31:24.121Z,100519.34
2023-10-08T00:31:56.205Z,100520.81
2023-10-08T00:32:28.355Z,100515.50
2023-10-08T00:33:00.571Z,100520.47
2023-10-08T00:33:33.036Z,100519.47
2023-10-08T00:34:05.197Z,100521.31
2023-10-08T00:34:37.227Z,100529.28
2023-10-08T00:35:10.422Z,100525.63
2023-10-08T00:35:43.328Z,100525.44
2023-10-08T00:36:15.470Z,100518.28
2023-10-08T00:36:49.030Z,100509.47
2023-10-08T00:37:21.047Z,100509.31
2023-10-08T00:37:53.095Z,100510.94
2023-10-08T00:38:25.155Z,100509.13
2023-10-08T00:38:57.162Z,100507.28
2023-10-08T00:39:29.201Z,100505.63
2023-10-08T00:40:01.283Z,100500.13
2023-10-08T00:40:38.186Z,100496.63
2023-10-08T00:41:13.669Z,100505.31
2023-10-08T00:41:46.898Z,100489.81
2023-10-08T00:42:19.039Z,100485.81
2023-10-08T00:42:51.015Z,100490.16
2023-10-08T00:43:32.363Z,100491.47
2023-10-08T00:44:08.193Z,100494.13
2023-10-08T00:44:41.769Z,100495.75
2023-10-08T00:45:17.126Z,100496.78
2023-10-08T00:45:49.178Z,100496.94
2023-10-08T00:46:21.427Z,100497.59
2023-10-08T00:46:53.675Z,100504.28
2023-10-08T00:47:25.748Z,100493.81
2023-10-08T00:47:58.032Z,100485.81
2023-10-08T00:48:31.170Z,100492.81
2023-10-08T00:49:04.105Z,100487.28
2023-10-08T00:49:36.309Z,100483.47
2023-10-08T00:50:08.866Z,100489.91
2023-10-08T00:50:40.988Z,100482.91
2023-10-08T00:51:14.049Z,100484.22
2023-10-08T00:51:46.675Z,100483.59
2023-10-08T00:52:18.895Z,100478.25
2023-10-08T00:52:51.499Z,100485.91
2023-10-08T00:53:24.198Z,100484.22
2023-10-08T00:54:00.922Z,100477.06
2023-10-08T00:54:33.297Z,100473.53
2023-10-08T00:55:06.798Z,100478.69
2023-10-08T00:55:39.595Z,100475.84
2023-10-08T00:56:12.072Z,100459.56
2023-10-08T00:56:47.639Z,100477.97
2023-10-08T00:57:22.545Z,100475.31
2023-10-08T00:57:59.478Z,100483.97
2023-10-08T00:58:31.572Z,100482.50
2023-10-08T00:59:03.812Z,100479.63
2023-10-08T00:59:35.914Z,100486.09
2023-10-08T01:00:10.971Z,100487.09
2023-10-08T01:00:43.173Z,100484.44
2023-10-08T01:01:16.159Z,100480.09
2023-10-08T01:01:49.288Z,100487.63
2023-10-08T01:02:21.528Z,100482.50
2023-10-08T01:02:53.906Z,100477.34
2023-10-08T01:03:26.690Z,100481.34
2023-10-08T01:03:59.247Z,100482.81
2023-10-08T01:04:32.000Z,100474.84
2023-10-08T01:05:04.526Z,100477.16
2023-10-08T01:05:36.650Z,100482.13
2023-10-08T01:06:08.983Z,100488.94
2023-10-08T01:06:41.151Z,100482.78
2023-10-08T01:07:16.334Z,100478.13
2023-10-08T01:07:50.905Z,100470.13
2023-10-08T01:08:24.913Z,100466.84
2023-10-08T01:08:57.051Z,100474.50
2023-10-08T01:09:29.599Z,100464.16
2023-10-08T01:10:01.620Z,100467.34
2023-10-08T01:10:33.728Z,100471.00
2023-10-08T01:11:26.544Z,100469.34
2023-10-08T01:12:15.447Z,100470.34
2023-10-08T01:12:48.084Z,100463.28
2023-10-08T01:13:20.121Z,100465.47
2023-10-08T01:13:52.149Z,100464.00
2023-10-08T01:14:24.250Z,100455.22
2023-10-08T01:14:56.498Z,100465.19
2023-10-08T01:15:30.240Z,100468.16
2023-10-08T01:16:02.421Z,100465.69
2023-10-08T01:16:34.568Z,100458.50
2023-10-08T01:17:06.685Z,100465.16
2023-10-08T01:17:39.249Z,100472.31
2023-10-08T01:18:11.552Z,100468.34
2023-10-08T01:18:43.557Z,100465.84
2023-10-08T01:19:19.564Z,100465.84
2023-10-08T01:19:51.878Z,100470.28
2023-10-08T01:20:23.986Z,100467.16
2023-10-08T01:20:56.340Z,100463.19
2023-10-08T01:21:29.884Z,100464.66
2023-10-08T01:22:06.677Z,100457.47
2023-10-08T01:22:38.767Z,100457.00
2023-10-08T01:23:12.224Z,100459.16
2023-10-08T01:23:45.897Z,100452.00
2023-10-08T01:24:18.005Z,100446.97
2023-10-08T01:24:50.596Z,100450.25
2023-10-08T01:25:22.645Z,100448.44
2023-10-08T01:25:54.671Z,100442.94
2023-10-08T01:26:26.748Z,100442.28
2023-10-08T01:26:58.881Z,100437.41
2023-10-08T01:27:32.516Z,100437.59
2023-10-08T01:28:05.464Z,100442.56
2023-10-08T01:28:37.627Z,100440.75
2023-10-08T01:29:13.249Z,100446.06
2023-10-08T01:29:45.713Z,100444.41
2023-10-08T01:30:17.838Z,100437.88
2023-10-08T01:30:49.890Z,100450.41
2023-10-08T01:31:22.014Z,100447.91
2023-10-08T01:31:54.023Z,100448.53
2023-10-08T01:32:26.077Z,100453.06
2023-10-08T01:32:58.264Z,100453.06
2023-10-08T01:33:30.609Z,100453.06
2023-10-08T01:34:02.680Z,100439.91
2023-10-08T01:34:34.719Z,100440.06
2023-10-08T01:35:07.626Z,100440.28
2023-10-08T01:35:40.864Z,100439.44
2023-10-08T01:36:12.917Z,100436.56
2023-10-08T01:36:44.993Z,100432.91
2023-10-08T01:37:19.774Z,100444.78
2023-10-08T01:37:52.048Z,100431.97
2023-10-08T01:38:24.068Z,100435.63
2023-10-08T01:38:56.367Z,100436.63
2023-10-08T01:39:28.403Z,100439.31
2023-10-08T01:40:00.592Z,100439.66
2023-10-08T01:40:32.574Z,100440.66
2023-10-08T01:41:05.164Z,100430.84
2023-10-08T01:41:37.266Z,100444.16
2023-10-08T01:42:09.843Z,100435.34
2023-10-08T01:42:41.871Z,100422.97
2023-10-08T01:43:13.885Z,100417.44
2023-10-08T01:43:46.112Z,100423.81
2023-10-08T01:44:18.252Z,100419.66
2023-10-08T01:44:51.157Z,100422.31
2023-10-08T01:45:23.424Z,100420.00
2023-10-08T01:45:55.587Z,100407.06
2023-10-08T01:46:27.709Z,100419.53
2023-10-08T01:46:59.782Z,100410.72
2023-10-08T01:47:31.959Z,100408.41
2023-10-08T01:48:04.463Z,100414.91
2023-10-08T01:48:36.590Z,100413.91
2023-10-08T01:49:08.692Z,100411.25
2023-10-08T01:49:40.807Z,100407.47
2023-10-08T01:50:12.851Z,100398.97
2023-10-08T01:50:44.930Z,100411.78
2023-10-08T01:51:17.430Z,100405.09
2023-10-08T01:51:49.443Z,100408.22
2023-10-08T01:52:22.946Z,100395.25
2023-10-08T01:52:55.045Z,100396.88
2023-10-08T01:53:27.137Z,100418.47
2023-10-08T01:53:59.729Z,100399.84
2023-10-08T01:54:31.922Z,100407.41
2023-10-08T01:55:04.984Z,100402.06
2023-10-08T01:55:38.021Z,100408.31
2023-10-08T01:56:10.137Z,100414.13
2023-10-08T01:56:43.254Z,100408.25
2023-10-08T01:57:15.938Z,100395.84
2023-10-08T01:57:49.370Z,100409.16
2023-10-08T01:58:24.379Z,100405.66
2023-10-08T01:58:57.111Z,100411.00
2023-10-08T01:59:32.866Z,100405.28
2023-10-08T02:00:10.988Z,100406.59
2023-10-08T02:00:44.312Z,100410.91
2023-10-08T02:01:20.871Z,100406.59
2023-10-08T02:01:52.991Z,100400.44
2023-10-08T02:02:25.163Z,100406.06
2023-10-08T02:02:57.441Z,100404.59
2023-10-08T02:03:29.620Z,100403.09
2023-10-08T02:04:02.692Z,100405.59
2023-10-08T02:04:35.255Z,100395.16
2023-10-08T02:05:07.897Z,100396.94
2023-10-08T02:05:40.048Z,100409.63
2023-10-08T02:06:12.033Z,100400.97
2023-10-08T02:06:44.089Z,100407.31
2023-10-08T02:07:16.098Z,100403.81
2023-10-08T02:07:49.748Z,100404.00
2023-10-08T02:08:21.854Z,100394.53
2023-10-08T02:08:53.928Z,100402.69
2023-10-08T02:09:26.057Z,100399.88
2023-10-08T02:09:58.476Z,100397.38
2023-10-08T02:10:30.484Z,100394.63
2023-10-08T02:11:02.644Z,100374.13
2023-10-08T02:11:46.957Z,100394.63
2023-10-08T02:12:19.127Z,100395.09
2023-10-08T02:12:51.216Z,100397.88
2023-10-08T02:13:23.286Z,100392.25
2023-10-08T02:13:55.307Z,100397.06
2023-10-08T02:14:27.539Z,100408.56
2023-10-08T02:14:59.573Z,100405.44
2023-10-08T02:15:31.583Z,100404.84
2023-10-08T02:16:04.029Z,100399.53
2023-10-08T02:16:40.882Z,100402.38
2023-10-08T02:17:13.424Z,100400.81
2023-10-08T02:17:45.754Z,100388.31
2023-10-08T02:18:17.884Z,100400.28
2023-10-08T02:18:51.801Z,100391.09
2023-10-08T02:19:25.358Z,100394.78
2023-10-08T02:19:57.542Z,100388.69
2023-10-08T02:20:29.577Z,100398.91
2023-10-08T02:21:01.650Z,100396.44
2023-10-08T02:21:33.757Z,100382.81
2023-10-08T02:22:05.943Z,100394.25
2023-10-08T02:22:38.020Z,100386.78
2023-10-08T02:23:12.052Z,100386.03
2023-10-08T02:23:44.132Z,100384.50
2023-10-08T02:24:16.196Z,100379.97
2023-10-08T02:24:48.311Z,100382.19
2023-10-08T02:25:20.485Z,100367.97
2023-10-08T02:25:52.526Z,100381.75
2023-10-08T02:26:24.575Z,100380.47
2023-10-08T02:26:56.796Z,100371.66
2023-10-08T02:27:29.118Z,100369.97
2023-10-08T02:28:02.557Z,100367.66
2023-10-08T02:28:34.575Z,100367.81
2023-10-08T02:29:07.310Z,100364.16
2023-10-08T02:29:39.461Z,100366.00
2023-10-08T02:30:12.460Z,100372.91
2023-10-08T02:30:44.846Z,100367.75
2023-10-08T02:31:16.955Z,100364.59
2023-10-08T02:31:49.038Z,100355.78
2023-10-08T02:32:21.128Z,100351.34
2023-10-08T02:32:56.103Z,100355.69
2023-10-08T02:33:28.642Z,100360.81
2023-10-08T02:34:00.681Z,100360.34
2023-10-08T02:34:32.740Z,100363.03
2023-10-08T02:35:05.649Z,100364.22
2023-10-08T02:35:37.748Z,100360.72
2023-10-08T02:36:09.746Z,100363.41
2023-10-08T02:36:44.012Z,100361.72
2023-10-08T02:37:17.492Z,100368.91
2023-10-08T02:37:49.565Z,100358.44
2023-10-08T02:38:23.139Z,100360.09
2023-10-08T02:38:55.178Z,100365.97
2023-10-08T02:39:27.294Z,100371.75
2023-10-08T02:39:59.544Z,100365.78
2023-10-08T02:40:31.891Z,100364.69
2023-10-08T02:41:04.030Z,100374.97
2023-10-08T02:41:36.094Z,100368.81
2023-10-08T02:42:08.283Z,100373.13
2023-10-08T02:42:40.318Z,100378.47
2023-10-08T02:43:12.407Z,100376.81
2023-10-08T02:43:44.462Z,100375.13
2023-10-08T02:44:17.581Z,100376.44
2023-10-08T02:44:49.742Z,100379.31
2023-10-08T02:45:21.837Z,100376.63
2023-10-08T02:45:53.923Z,100375.81
2023-10-08T02:46:26.237Z,100378.38
2023-10-08T02:46:59.290Z,100376.72
2023-10-08T02:47:31.635Z,100373.06
2023-10-08T02:48:04.067Z,100375.72
2023-10-08T02:48:36.365Z,100362.41
2023-10-08T02:49:08.826Z,100370.84
2023-10-08T02:49:41.353Z,100359.28
2023-10-08T02:50:13.843Z,100370.78
2023-10-08T02:50:46.033Z,100360.28
2023-10-08T02:51:18.143Z,100370.78
2023-10-08T02:51:52.705Z,100358.81
2023-10-08T02:52:24.699Z,100357.72
2023-10-08T02:52:56.765Z,100356.69
2023-10-08T02:53:30.507Z,100353.84
2023-10-08T02:54:02.545Z,100351.72
2023-10-08T02:54:34.696Z,100350.06
2023-10-08T02:55:09.650Z,100352.75
2023-10-08T02:55:42.673Z,100347.16
2023-10-08T02:56:14.824Z,100349.97
2023-10-08T02:56:48.644Z,100349.53
2023-10-08T02:57:20.692Z,100348.06
2023-10-08T02:57:52.763Z,100347.88
2023-10-08T02:58:24.808Z,100339.22
2023-10-08T02:58:56.865Z,100337.75
2023-10-08T02:59:33.690Z,100351.59
2023-10-08T03:00:07.352Z,100337.34
2023-10-08T03:00:39.469Z,100342.31
2023-10-08T03:01:11.494Z,100337.81
2023-10-08T03:01:43.578Z,100342.97
2023-10-08T03:02:16.330Z,100345.81
2023-10-08T03:02:48.535Z,100342.69
2023-10-08T03:03:20.793Z,100348.22
2023-10-08T03:03:55.377Z,100347.56
2023-10-08T03:04:28.032Z,100340.38
2023-10-08T03:05:00.072Z,100346.09
2023-10-08T03:05:32.603Z,100334.59
2023-10-08T03:06:04.949Z,100330.47
2023-10-08T03:06:37.008Z,100324.31
2023-10-08T03:07:09.053Z,100334.59
2023-10-08T03:07:41.069Z,100326.59
2023-10-08T03:08:13.542Z,100328.59
2023-10-08T03:08:46.979Z,100320.81
2023-10-08T03:09:19.725Z,100324.66
2023-10-08T03:09:53.294Z,100316.00
2023-10-08T03:10:34.653Z,100323.19
2023-10-08T03:11:06.909Z,100325.84
2023-10-08T03:11:41.839Z,100330.19
2023-10-08T03:12:13.876Z,100334.97
2023-10-08T03:12:46.776Z,100329.63
2023-10-08T03:13:19.045Z,100332.31
2023-10-08T03:13:51.218Z,100330.81
2023-10-08T03:14:23.299Z,100333.13
2023-10-08T03:14:58.597Z,100330.47
2023-10-08T03:15:30.918Z,100331.28
2023-10-08T03:16:03.454Z,100340.28
2023-10-08T03:16:35.684Z,100335.13
2023-10-08T03:17:07.666Z,100340.47
2023-10-08T03:17:39.929Z,100334.13
2023-10-08T03:18:12.232Z,100322.19
2023-10-08T03:18:44.263Z,100319.44
2023-10-08T03:19:16.512Z,100324.41
2023-10-08T03:19:48.651Z,100324.69
2023-10-08T03:20:21.300Z,100321.81
2023-10-08T03:20:53.534Z,100317.69
2023-10-08T03:21:25.664Z,100324.69
2023-10-08T03:21:57.748Z,100318.31
2023-10-08T03:22:29.814Z,100320.75
2023-10-08T03:23:01.912Z,100320.09
2023-10-08T03:23:34.141Z,100325.25
2023-10-08T03:24:08.880Z,100315.50
2023-10-08T03:24:41.034Z,100318.81
2023-10-08T03:25:14.163Z,100308.59
2023-10-08T03:25:46.157Z,100314.78
2023-10-08T03:26:22.610Z,100310.19
2023-10-08T03:26:54.730Z,100309.81
2023-10-08T03:27:26.853Z,100306.03
2023-10-08T03:27:58.934Z,100308.34
2023-10-08T03:28:31.866Z,100314.22
2023-10-08T03:29:05.706Z,100317.06
2023-10-08T03:29:38.120Z,100306.31
2023-10-08T03:30:10.779Z,100322.56
2023-10-08T03:30:42.834Z,100309.97
2023-10-08T03:31:15.621Z,100314.56
2023-10-08T03:31:47.915Z,100311.50
2023-10-08T03:32:20.398Z,100311.50
2023-10-08T03:32:52.646Z,100309.03
2023-10-08T03:33:25.123Z,100300.53
2023-10-08T03:33:57.506Z,100304.28
2023-10-08T03:34:29.578Z,100303.00
2023-10-08T03:35:01.860Z,100299.28
2023-10-08T03:35:35.900Z,100295.56
2023-10-08T03:36:09.025Z,100298.88
2023-10-08T03:36:41.406Z,100298.22
2023-10-08T03:37:15.351Z,100294.09
2023-10-08T03:37:47.338Z,100280.75
2023-10-08T03:38:20.337Z,100283.94
2023-10-08T03:38:53.192Z,100288.47
2023-10-08T03:39:27.058Z,100284.75
2023-10-08T03:39:59.149Z,100280.47
2023-10-08T03:40:31.597Z,100289.16
2023-10-08T03:41:03.826Z,100287.31
2023-10-08T03:41:36.250Z,100281.16
2023-10-08T03:42:08.306Z,100282.63
2023-10-08T03:42:40.387Z,100287.75
2023-10-08T03:43:12.411Z,100288.81
2023-10-08T03:43:44.553Z,100274.22
2023-10-08T03:44:16.655Z,100278.94
2023-10-08T03:44:48.668Z,100290.63
2023-10-08T03:45:20.858Z,100277.06
2023-10-08T03:45:52.911Z,100288.47
2023-10-08T03:46:25.028Z,100281.50
2023-10-08T03:46:57.092Z,100277.44
2023-10-08T03:47:29.569Z,100270.41
2023-10-08T03:48:01.756Z,100275.75
2023-10-08T03:48:34.127Z,100278.00
2023-10-08T03:49:06.511Z,100272.69
2023-10-08T03:49:43.567Z,100283.47
2023-10-08T03:50:15.883Z,100282.38
2023-10-08T03:50:47.995Z,100285.06
2023-10-08T03:51:20.055Z,100282.56
2023-10-08T03:51:53.516Z,100272.16
2023-10-08T03:52:28.743Z,100286.13
2023-10-08T03:53:01.130Z,100280.34
2023-10-08T03:53:33.250Z,100290.88
2023-10-08T03:54:06.690Z,100294.53
2023-10-08T03:54:40.102Z,100288.19
2023-10-08T03:55:12.762Z,100295.38
2023-10-08T03:55:44.867Z,100304.00
2023-10-08T03:56:16.929Z,100294.97
2023-10-08T03:56:48.974Z,100280.22
2023-10-08T03:57:21.052Z,100296.34
2023-10-08T03:57:53.159Z,100300.19
2023-10-08T03:58:25.228Z,100293.47
2023-10-08T03:58:57.569Z,100303.97
2023-10-08T03:59:29.658Z,100302.75
2023-10-08T04:00:01.831Z,100303.13
2023-10-08T04:00:33.890Z,100299.81
2023-10-08T04:01:07.581Z,100292.84
2023-10-08T04:01:40.101Z,100295.69
2023-10-08T04:02:12.664Z,100302.47
2023-10-08T04:02:44.830Z,100299.19
2023-10-08T04:03:17.110Z,100305.63
2023-10-08T04:03:49.322Z,100304.59
2023-10-08T04:04:21.463Z,100287.16
2023-10-08T04:04:53.589Z,100308.53
2023-10-08T04:05:26.355Z,100299.06
2023-10-08T04:05:58.453Z,100302.56
2023-10-08T04:06:31.124Z,100299.88
2023-10-08T04:07:03.200Z,100308.72
2023-10-08T04:07:35.332Z,100299.88
2023-10-08T04:08:07.427Z,100305.63
2023-10-08T04:08:39.651Z,100298.63
2023-10-08T04:09:11.878Z,100302.94
2023-10-08T04:09:45.632Z,100299.44
2023-10-08T04:10:17.708Z,100303.97
2023-10-08T04:10:49.807Z,100305.81
2023-10-08T04:11:22.191Z,100299.00
2023-10-08T04:11:56.504Z,100303.13
2023-10-08T04:12:40.528Z,100303.97
2023-10-08T04:13:12.750Z,100305.97
2023-10-08T04:13:44.837Z,100311.59
2023-10-08T04:14:18.531Z,100333.00
2023-10-08T04:14:50.638Z,100325.00
2023-10-08T04:15:25.805Z,100331.16
2023-10-08T04:15:58.511Z,100311.84
2023-10-08T04:16:31.232Z,100318.63
2023-10-08T04:17:03.694Z,100318.19
2023-10-08T04:17:37.003Z,100315.13
2023-10-08T04:18:09.865Z,100318.38
2023-10-08T04:18:42.059Z,100306.25
2023-10-08T04:19:14.688Z,100318.38
2023-10-08T04:19:46.885Z,100317.59
2023-10-08T04:20:18.979Z,100312.41
2023-10-08T04:20:51.152Z,100315.28
2023-10-08T04:21:23.642Z,100320.00
2023-10-08T04:21:56.318Z,100318.59
2023-10-08T04:22:31.052Z,100311.41
2023-10-08T04:23:04.991Z,100291.63
2023-10-08T04:23:37.167Z,100317.75
2023-10-08T04:24:09.651Z,100317.59
2023-10-08T04:24:45.891Z,100318.59
2023-10-08T04:25:18.235Z,100308.47
2023-10-08T04:25:50.300Z,100319.88
2023-10-08T04:26:22.335Z,100326.88
2023-10-08T04:26:54.619Z,100326.66
2023-10-08T04:27:26.645Z,100320.47
2023-10-08T04:28:00.218Z,100325.81
2023-10-08T04:28:32.858Z,100331.16
2023-10-08T04:29:05.051Z,100320.88
2023-10-08T04:29:37.325Z,100330.56
2023-10-08T04:30:10.541Z,100329.53
2023-10-08T04:30:42.714Z,100329.53
2023-10-08T04:31:14.798Z,100333.22
2023-10-08T04:31:47.532Z,100327.66
2023-10-08T04:32:19.711Z,100329.53
2023-10-08T04:32:51.842Z,100335.06
2023-10-08T04:33:25.634Z,100334.22
2023-10-08T04:33:57.950Z,100329.91
2023-10-08T04:34:30.275Z,100342.44
2023-10-08T04:35:02.293Z,100337.09
2023-10-08T04:35:34.958Z,100338.31
2023-10-08T04:36:06.994Z,100346.91
2023-10-08T04:36:39.105Z,100342.44
2023-10-08T04:37:11.980Z,100334.19
2023-10-08T04:37:43.973Z,100345.09
2023-10-08T04:38:16.835Z,100346.97
2023-10-08T04:38:49.307Z,100332.13
2023-10-08T04:39:21.885Z,100337.47
2023-10-08T04:39:55.291Z,100338.50
2023-10-08T04:40:27.329Z,100332.13
2023-10-08T04:40:59.689Z,100337.69
2023-10-08T04:41:31.772Z,100334.38
2023-10-08T04:42:04.208Z,100331.06
2023-10-08T04:42:36.269Z,100333.75
2023-10-08T04:43:08.285Z,100331.25
2023-10-08T04:43:40.327Z,100341.09
2023-10-08T04:44:12.846Z,100346.44
2023-10-08T04:44:44.996Z,100340.50
2023-10-08T04:45:17.084Z,100344.56
2023-10-08T04:45:49.150Z,100340.00
2023-10-08T04:46:21.725Z,100349.91
2023-10-08T04:46:53.858Z,100334.13
2023-10-08T04:47:26.149Z,100352.75
2023-10-08T04:47:58.254Z,100360.09
2023-10-08T04:48:30.475Z,100365.28
2023-10-08T04:49:02.610Z,100358.34
2023-10-08T04:49:34.760Z,100360.00
2023-10-08T04:50:07.494Z,100348.84
2023-10-08T04:50:39.672Z,100354.28
2023-10-08T04:51:12.631Z,100353.06
2023-10-08T04:51:44.855Z,100355.91
2023-10-08T04:52:16.973Z,100353.25
2023-10-08T04:52:49.009Z,100353.25
2023-10-08T04:53:20.978Z,100355.13
2023-10-08T04:53:53.438Z,100344.16
2023-10-08T04:54:26.491Z,100354.53
2023-10-08T04:55:00.720Z,100357.66
2023-10-08T04:55:32.778Z,100361.13
2023-10-08T04:56:07.321Z,100356.84
2023-10-08T04:56:39.803Z,100353.34
2023-10-08T04:57:11.855Z,100351.66
2023-10-08T04:57:44.089Z,100345.94
2023-10-08T04:58:16.174Z,100339.59
2023-10-08T04:58:49.082Z,100351.94
2023-10-08T04:59:21.119Z,100356.63
2023-10-08T04:59:53.407Z,100347.16
2023-10-08T05:00:25.470Z,100344.66
2023-10-08T05:01:00.992Z,100349.00
2023-10-08T05:01:33.238Z,100351.06
2023-10-08T05:02:06.651Z,100345.69
2023-10-08T05:02:38.727Z,100344.22
2023-10-08T05:03:10.892Z,100357.59
2023-10-08T05:03:42.994Z,100347.09
2023-10-08T05:04:19.241Z,100352.06
2023-10-08T05:04:52.298Z,100347.09
2023-10-08T05:05:24.697Z,100354.91
2023-10-08T05:05:56.900Z,100348.94
2023-10-08T05:06:31.359Z,100351.63
2023-10-08T05:07:03.394Z,100351.78
2023-10-08T05:07:35.407Z,100349.50
2023-10-08T05:08:07.476Z,100346.19
2023-10-08T05:08:39.546Z,100337.16
2023-10-08T05:09:13.028Z,100339.84
2023-10-08T05:09:46.499Z,100348.50
2023-10-08T05:10:20.083Z,100343.34
2023-10-08T05:10:52.404Z,100341.06
2023-10-08T05:11:24.495Z,100342.06
2023-10-08T05:11:57.093Z,100342.25
2023-10-08T05:12:29.153Z,100341.22
2023-10-08T05:13:01.178Z,100345.34
2023-10-08T05:13:33.189Z,100342.06
2023-10-08T05:14:05.376Z,100345.56
2023-10-08T05:14:37.502Z,100341.22
2023-10-08T05:15:10.364Z,100344.72
2023-10-08T05:15:42.921Z,100350.06
2023-10-08T05:16:15.143Z,100342.06
2023-10-08T05:16:47.219Z,100343.50
2023-10-08T05:17:19.655Z,100344.34
2023-10-08T05:17:52.046Z,100350.34
2023-10-08T05:18:24.824Z,100347.03
2023-10-08T05:18:57.129Z,100355.91
2023-10-08T05:19:29.212Z,100351.78
2023-10-08T05:20:01.208Z,100340.66
2023-10-08T05:20:33.286Z,100342.78
2023-10-08T05:21:05.326Z,100347.91
2023-10-08T05:21:37.356Z,100350.41
2023-10-08T05:22:10.225Z,100346.28
2023-10-08T05:22:42.313Z,100343.59
2023-10-08T05:23:15.240Z,100345.88
2023-10-08T05:23:47.304Z,100339.88
2023-10-08T05:24:20.609Z,100344.59
2023-10-08T05:24:52.965Z,100343.03
2023-10-08T05:25:26.450Z,100340.09
2023-10-08T05:25:59.391Z,100339.31
2023-10-08T05:26:31.520Z,100323.69
2023-10-08T05:27:03.615Z,100335.19
2023-10-08T05:27:37.333Z,100341.81
2023-10-08T05:28:09.417Z,100331.75
2023-10-08T05:28:41.480Z,100330.72
2023-10-08T05:29:13.808Z,100341.63
2023-10-08T05:29:46.027Z,100315.56
2023-10-08T05:30:20.166Z,100336.38
2023-10-08T05:30:52.632Z,100323.66
2023-10-08T05:31:29.017Z,100331.03
2023-10-08T05:32:01.073Z,100333.72
2023-10-08T05:32:33.363Z,100334.38
2023-10-08T05:33:06.928Z,100332.69
2023-10-08T05:33:39.141Z,100327.97
2023-10-08T05:34:11.192Z,100334.38
2023-10-08T05:34:43.177Z,100330.84
2023-10-08T05:35:15.321Z,100326.53
2023-10-08T05:35:47.673Z,100315.97
2023-10-08T05:36:19.798Z,100326.91
2023-10-08T05:36:51.957Z,100316.41
2023-10-08T05:37:24.151Z,100324.44
2023-10-08T05:37:59.465Z,100327.53
2023-10-08T05:38:34.069Z,100324.69
2023-10-08T05:39:06.173Z,100331.88
2023-10-08T05:39:38.759Z,100332.06
2023-10-08T05:40:11.521Z,100336.38
2023-10-08T05:40:45.491Z,100341.13
2023-10-08T05:41:17.559Z,100337.41
2023-10-08T05:41:50.212Z,100339.06
2023-10-08T05:42:22.282Z,100337.22
2023-10-08T05:42:54.427Z,100334.94
2023-10-08T05:43:28.720Z,100337.41
2023-10-08T05:44:02.868Z,100322.97
2023-10-08T05:44:35.012Z,100343.00
2023-10-08T05:45:07.788Z,100343.41
2023-10-08T05:45:39.830Z,100342.56
2023-10-08T05:46:14.844Z,100339.50
2023-10-08T05:46:47.851Z,100339.31
2023-10-08T05:47:20.198Z,100340.16
2023-10-08T05:47:52.271Z,100340.16
2023-10-08T05:48:24.503Z,100339.13
2023-10-08T05:48:59.441Z,100346.50
2023-10-08T05:49:31.516Z,100345.66
2023-10-08T05:50:05.922Z,100337.88
2023-10-08T05:50:37.995Z,100344.47
2023-10-08T05:51:10.160Z,100338.31
2023-10-08T05:51:43.594Z,100341.59
2023-10-08T05:52:15.586Z,100339.94
2023-10-08T05:52:49.150Z,100335.81
2023-10-08T05:53:21.209Z,100343.00
2023-10-08T05:53:53.336Z,100341.13
2023-10-08T05:54:26.449Z,100348.28
2023-10-08T05:55:00.017Z,100340.28
2023-10-08T05:55:33.079Z,100339.63
2023-10-08T05:56:10.110Z,100335.75
2023-10-08T05:56:42.289Z,100349.13
2023-10-08T05:57:14.429Z,100348.47
2023-10-08T05:57:46.406Z,100345.19
2023-10-08T05:58:18.614Z,100347.84
2023-10-08T05:58:50.605Z,100351.97
2023-10-08T05:59:22.642Z,100355.88
2023-10-08T05:59:54.821Z,100359.38
2023-10-08T06:00:27.289Z,100358.56
2023-10-08T06:00:59.360Z,100353.59
2023-10-08T06:01:31.395Z,100361.78
2023-10-08T06:02:03.444Z,100361.78
2023-10-08T06:02:36.245Z,100356.06
2023-10-08T06:03:08.548Z,100361.41
2023-10-08T06:03:40.879Z,100367.97
2023-10-08T06:04:13.304Z,100357.28
2023-10-08T06:04:45.391Z,100366.69
2023-10-08T06:05:17.415Z,100367.69
2023-10-08T06:05:49.463Z,100356.63
2023-10-08T06:06:21.515Z,100357.47
2023-10-08T06:06:54.316Z,100361.34
2023-10-08T06:07:27.349Z,100361.53
2023-10-08T06:07:59.573Z,100357.84
2023-10-08T06:08:31.786Z,100368.91
2023-10-08T06:09:05.615Z,100362.75
2023-10-08T06:09:37.817Z,100365.41
2023-10-08T06:10:11.098Z,100364.41
2023-10-08T06:10:43.127Z,100362.94
2023-10-08T06:11:17.223Z,100361.25
2023-10-08T06:11:50.432Z,100359.81
2023-10-08T06:12:22.544Z,100362.31
2023-10-08T06:12:54.620Z,100356.97
2023-10-08T06:13:26.674Z,100357.13
2023-10-08T06:13:58.730Z,100350.13